sensor_id;sensor_type;location;lat;lon;timestamp;temperature;humidity
3550;DHT22;45572;48.804;8.330;2023-02-18T00:01:38;13.80;83.10
3550;DHT22;45572;48.804;8.330;2023-02-18T00:04:07;13.80;83.10
3550;DHT22;45572;48.804;8.330;2023-02-18T00:06:37;13.80;83.10
3550;DHT22;45572;48.804;8.330;2023-02-18T00:09:05;13.80;82.90
3550;DHT22;45572;48.804;8.330;2023-02-18T00:11:35;13.90;83.00
3550;DHT22;45572;48.804;8.330;2023-02-18T00:14:10;13.90;83.00
3550;DHT22;45572;48.804;8.330;2023-02-18T00:16:39;13.90;83.00
3550;DHT22;45572;48.804;8.330;2023-02-18T00:19:11;13.90;82.60
3550;DHT22;45572;48.804;8.330;2023-02-18T00:21:39;13.90;82.60
3550;DHT22;45572;48.804;8.330;2023-02-18T00:24:08;13.90;82.80
3550;DHT22;45572;48.804;8.330;2023-02-18T00:26:35;13.90;82.90
3550;DHT22;45572;48.804;8.330;2023-02-18T00:29:03;13.90;82.80
3550;DHT22;45572;48.804;8.330;2023-02-18T00:31:33;13.90;82.80
3550;DHT22;45572;48.804;8.330;2023-02-18T00:34:02;13.90;82.70
3550;DHT22;45572;48.804;8.330;2023-02-18T00:36:31;13.90;82.60
3550;DHT22;45572;48.804;8.330;2023-02-18T00:39:01;13.90;82.60
3550;DHT22;45572;48.804;8.330;2023-02-18T00:41:29;13.90;82.60
3550;DHT22;45572;48.804;8.330;2023-02-18T00:43:57;13.90;82.60
3550;DHT22;45572;48.804;8.330;2023-02-18T00:46:26;13.90;82.40
3550;DHT22;45572;48.804;8.330;2023-02-18T00:48:54;13.90;82.50
3550;DHT22;45572;48.804;8.330;2023-02-18T00:51:22;13.90;82.70
3550;DHT22;45572;48.804;8.330;2023-02-18T00:53:52;13.80;82.70
3550;DHT22;45572;48.804;8.330;2023-02-18T00:56:20;13.90;82.70
3550;DHT22;45572;48.804;8.330;2023-02-18T00:58:48;13.90;82.60
3550;DHT22;45572;48.804;8.330;2023-02-18T01:01:16;13.90;82.60
3550;DHT22;45572;48.804;8.330;2023-02-18T01:03:44;13.80;82.50
3550;DHT22;45572;48.804;8.330;2023-02-18T01:06:13;13.80;82.70
3550;DHT22;45572;48.804;8.330;2023-02-18T01:08:41;13.80;82.90
3550;DHT22;45572;48.804;8.330;2023-02-18T01:11:11;13.80;82.80
3550;DHT22;45572;48.804;8.330;2023-02-18T01:13:39;13.80;82.90
3550;DHT22;45572;48.804;8.330;2023-02-18T01:16:08;13.80;82.60
3550;DHT22;45572;48.804;8.330;2023-02-18T01:18:38;13.90;82.40
3550;DHT22;45572;48.804;8.330;2023-02-18T01:21:07;13.90;82.60
3550;DHT22;45572;48.804;8.330;2023-02-18T01:23:36;13.90;82.60
3550;DHT22;45572;48.804;8.330;2023-02-18T01:26:04;13.90;82.40
3550;DHT22;45572;48.804;8.330;2023-02-18T01:28:34;13.90;82.30
3550;DHT22;45572;48.804;8.330;2023-02-18T01:31:04;13.90;82.30
3550;DHT22;45572;48.804;8.330;2023-02-18T01:33:33;13.90;82.40
3550;DHT22;45572;48.804;8.330;2023-02-18T01:36:01;13.90;82.40
3550;DHT22;45572;48.804;8.330;2023-02-18T01:38:29;13.90;82.30
3550;DHT22;45572;48.804;8.330;2023-02-18T01:40:57;13.90;82.10
3550;DHT22;45572;48.804;8.330;2023-02-18T01:43:27;13.90;82.10
3550;DHT22;45572;48.804;8.330;2023-02-18T01:46:03;13.90;82.20
3550;DHT22;45572;48.804;8.330;2023-02-18T01:48:35;13.90;82.20
3550;DHT22;45572;48.804;8.330;2023-02-18T01:51:09;13.90;82.10
3550;DHT22;45572;48.804;8.330;2023-02-18T01:53:43;13.90;82.00
3550;DHT22;45572;48.804;8.330;2023-02-18T01:56:29;13.90;82.10
3550;DHT22;45572;48.804;8.330;2023-02-18T01:59:00;13.90;81.90
3550;DHT22;45572;48.804;8.330;2023-02-18T02:01:30;13.90;81.80
3550;DHT22;45572;48.804;8.330;2023-02-18T02:04:00;13.90;82.00
3550;DHT22;45572;48.804;8.330;2023-02-18T02:06:28;13.90;82.00
3550;DHT22;45572;48.804;8.330;2023-02-18T02:08:59;13.90;82.10
3550;DHT22;45572;48.804;8.330;2023-02-18T02:14:32;13.90;82.20
3550;DHT22;45572;48.804;8.330;2023-02-18T02:17:08;13.90;82.20
3550;DHT22;45572;48.804;8.330;2023-02-18T02:22:56;13.90;82.20
3550;DHT22;45572;48.804;8.330;2023-02-18T02:25:45;13.90;82.20
3550;DHT22;45572;48.804;8.330;2023-02-18T02:28:32;13.90;82.30
3550;DHT22;45572;48.804;8.330;2023-02-18T02:31:27;13.90;82.20
3550;DHT22;45572;48.804;8.330;2023-02-18T02:34:22;13.80;82.50
3550;DHT22;45572;48.804;8.330;2023-02-18T02:36:59;13.90;82.60
3550;DHT22;45572;48.804;8.330;2023-02-18T02:39:34;13.80;82.60
3550;DHT22;45572;48.804;8.330;2023-02-18T02:42:11;13.90;82.50
3550;DHT22;45572;48.804;8.330;2023-02-18T02:44:46;13.90;82.70
3550;DHT22;45572;48.804;8.330;2023-02-18T02:47:20;13.90;82.60
3550;DHT22;45572;48.804;8.330;2023-02-18T02:49:59;13.80;82.60
3550;DHT22;45572;48.804;8.330;2023-02-18T02:52:31;13.90;82.60
3550;DHT22;45572;48.804;8.330;2023-02-18T02:54:59;13.80;82.60
3550;DHT22;45572;48.804;8.330;2023-02-18T02:57:43;13.80;82.80
3550;DHT22;45572;48.804;8.330;2023-02-18T03:00:18;13.80;82.80
3550;DHT22;45572;48.804;8.330;2023-02-18T03:03:00;13.70;82.80
3550;DHT22;45572;48.804;8.330;2023-02-18T03:05:43;13.70;83.00
3550;DHT22;45572;48.804;8.330;2023-02-18T03:08:24;13.70;82.80
3550;DHT22;45572;48.804;8.330;2023-02-18T03:11:02;13.80;82.50
3550;DHT22;45572;48.804;8.330;2023-02-18T03:13:43;13.80;82.30
3550;DHT22;45572;48.804;8.330;2023-02-18T03:16:25;13.80;82.20
3550;DHT22;45572;48.804;8.330;2023-02-18T03:19:06;13.80;82.30
3550;DHT22;45572;48.804;8.330;2023-02-18T03:21:40;13.80;82.20
3550;DHT22;45572;48.804;8.330;2023-02-18T03:24:15;13.80;82.40
3550;DHT22;45572;48.804;8.330;2023-02-18T03:26:47;13.80;82.50
3550;DHT22;45572;48.804;8.330;2023-02-18T03:29:17;13.80;82.30
3550;DHT22;45572;48.804;8.330;2023-02-18T03:31:51;13.80;82.00
3550;DHT22;45572;48.804;8.330;2023-02-18T03:34:25;13.80;82.10
3550;DHT22;45572;48.804;8.330;2023-02-18T03:36:57;13.70;81.90
3550;DHT22;45572;48.804;8.330;2023-02-18T03:39:27;13.80;82.00
3550;DHT22;45572;48.804;8.330;2023-02-18T03:41:56;13.80;82.00
3550;DHT22;45572;48.804;8.330;2023-02-18T03:44:24;13.80;81.80
3550;DHT22;45572;48.804;8.330;2023-02-18T03:46:52;13.80;81.80
3550;DHT22;45572;48.804;8.330;2023-02-18T03:49:20;13.80;81.90
3550;DHT22;45572;48.804;8.330;2023-02-18T03:51:48;13.80;81.50
3550;DHT22;45572;48.804;8.330;2023-02-18T03:54:17;13.80;81.50
3550;DHT22;45572;48.804;8.330;2023-02-18T03:56:46;13.80;81.60
3550;DHT22;45572;48.804;8.330;2023-02-18T03:59:14;13.80;81.80
3550;DHT22;45572;48.804;8.330;2023-02-18T04:01:41;13.80;81.60
3550;DHT22;45572;48.804;8.330;2023-02-18T04:04:09;13.80;81.60
3550;DHT22;45572;48.804;8.330;2023-02-18T04:06:37;13.80;81.60
3550;DHT22;45572;48.804;8.330;2023-02-18T04:09:06;13.80;81.70
3550;DHT22;45572;48.804;8.330;2023-02-18T04:11:38;13.80;81.70
3550;DHT22;45572;48.804;8.330;2023-02-18T04:14:07;13.90;81.70
3550;DHT22;45572;48.804;8.330;2023-02-18T04:16:34;13.80;81.70
3550;DHT22;45572;48.804;8.330;2023-02-18T04:19:02;13.80;82.00
3550;DHT22;45572;48.804;8.330;2023-02-18T04:21:30;13.80;82.00
3550;DHT22;45572;48.804;8.330;2023-02-18T04:23:59;13.80;81.90
3550;DHT22;45572;48.804;8.330;2023-02-18T04:26:26;13.80;82.30
3550;DHT22;45572;48.804;8.330;2023-02-18T04:28:56;13.80;82.20
3550;DHT22;45572;48.804;8.330;2023-02-18T04:31:23;13.70;82.00
3550;DHT22;45572;48.804;8.330;2023-02-18T04:33:51;13.80;82.10
3550;DHT22;45572;48.804;8.330;2023-02-18T04:36:19;13.80;82.10
3550;DHT22;45572;48.804;8.330;2023-02-18T04:38:47;13.80;82.10
3550;DHT22;45572;48.804;8.330;2023-02-18T04:41:14;13.80;82.20
3550;DHT22;45572;48.804;8.330;2023-02-18T04:43:42;13.80;82.40
3550;DHT22;45572;48.804;8.330;2023-02-18T04:46:11;13.80;82.50
3550;DHT22;45572;48.804;8.330;2023-02-18T04:48:39;13.80;82.70
3550;DHT22;45572;48.804;8.330;2023-02-18T04:51:07;13.80;82.60
3550;DHT22;45572;48.804;8.330;2023-02-18T04:53:35;13.80;82.60
3550;DHT22;45572;48.804;8.330;2023-02-18T04:56:03;13.80;82.60
3550;DHT22;45572;48.804;8.330;2023-02-18T04:58:31;13.70;82.80
3550;DHT22;45572;48.804;8.330;2023-02-18T05:00:59;13.70;82.90
3550;DHT22;45572;48.804;8.330;2023-02-18T05:03:29;13.70;83.00
3550;DHT22;45572;48.804;8.330;2023-02-18T05:05:57;13.70;82.80
3550;DHT22;45572;48.804;8.330;2023-02-18T05:08:25;13.70;82.80
3550;DHT22;45572;48.804;8.330;2023-02-18T05:10:53;13.80;82.70
3550;DHT22;45572;48.804;8.330;2023-02-18T05:13:21;13.80;82.70
3550;DHT22;45572;48.804;8.330;2023-02-18T05:15:49;13.70;82.70
3550;DHT22;45572;48.804;8.330;2023-02-18T05:18:17;13.70;82.90
3550;DHT22;45572;48.804;8.330;2023-02-18T05:20:46;13.80;82.80
3550;DHT22;45572;48.804;8.330;2023-02-18T05:23:13;13.80;82.70
3550;DHT22;45572;48.804;8.330;2023-02-18T05:25:41;13.80;82.90
3550;DHT22;45572;48.804;8.330;2023-02-18T05:28:09;13.80;82.70
3550;DHT22;45572;48.804;8.330;2023-02-18T05:30:37;13.70;82.80
3550;DHT22;45572;48.804;8.330;2023-02-18T05:33:05;13.70;82.80
3550;DHT22;45572;48.804;8.330;2023-02-18T05:35:32;13.70;82.80
3550;DHT22;45572;48.804;8.330;2023-02-18T05:38:01;13.70;82.80
3550;DHT22;45572;48.804;8.330;2023-02-18T05:40:29;13.70;82.50
3550;DHT22;45572;48.804;8.330;2023-02-18T05:42:57;13.70;82.60
3550;DHT22;45572;48.804;8.330;2023-02-18T05:45:24;13.70;82.50
3550;DHT22;45572;48.804;8.330;2023-02-18T05:47:52;13.70;82.10
3550;DHT22;45572;48.804;8.330;2023-02-18T05:50:20;13.80;82.10
3550;DHT22;45572;48.804;8.330;2023-02-18T05:52:48;13.80;82.10
3550;DHT22;45572;48.804;8.330;2023-02-18T05:55:17;13.80;82.10
3550;DHT22;45572;48.804;8.330;2023-02-18T05:57:45;13.80;82.10
3550;DHT22;45572;48.804;8.330;2023-02-18T06:00:14;13.80;81.80
3550;DHT22;45572;48.804;8.330;2023-02-18T06:02:44;13.80;81.50
3550;DHT22;45572;48.804;8.330;2023-02-18T06:05:11;13.80;81.30
3550;DHT22;45572;48.804;8.330;2023-02-18T06:07:39;13.80;81.60
3550;DHT22;45572;48.804;8.330;2023-02-18T06:10:08;13.80;81.20
3550;DHT22;45572;48.804;8.330;2023-02-18T06:12:37;13.80;81.20
3550;DHT22;45572;48.804;8.330;2023-02-18T06:15:06;13.80;81.20
3550;DHT22;45572;48.804;8.330;2023-02-18T06:17:33;13.80;81.20
3550;DHT22;45572;48.804;8.330;2023-02-18T06:20:01;13.80;81.50
3550;DHT22;45572;48.804;8.330;2023-02-18T06:22:29;13.80;81.30
3550;DHT22;45572;48.804;8.330;2023-02-18T06:24:57;13.80;81.50
3550;DHT22;45572;48.804;8.330;2023-02-18T06:27:24;13.80;81.40
3550;DHT22;45572;48.804;8.330;2023-02-18T06:29:53;13.80;81.50
3550;DHT22;45572;48.804;8.330;2023-02-18T06:32:21;13.80;81.50
3550;DHT22;45572;48.804;8.330;2023-02-18T06:34:49;13.80;81.40
3550;DHT22;45572;48.804;8.330;2023-02-18T06:37:17;13.80;81.50
3550;DHT22;45572;48.804;8.330;2023-02-18T06:39:44;13.80;81.40
3550;DHT22;45572;48.804;8.330;2023-02-18T06:42:12;13.80;81.40
3550;DHT22;45572;48.804;8.330;2023-02-18T06:44:40;13.80;81.40
3550;DHT22;45572;48.804;8.330;2023-02-18T06:47:09;13.80;81.00
3550;DHT22;45572;48.804;8.330;2023-02-18T06:49:37;13.80;80.80
3550;DHT22;45572;48.804;8.330;2023-02-18T06:52:05;13.80;80.70
3550;DHT22;45572;48.804;8.330;2023-02-18T06:54:33;13.90;80.80
3550;DHT22;45572;48.804;8.330;2023-02-18T06:57:01;13.90;80.50
3550;DHT22;45572;48.804;8.330;2023-02-18T06:59:28;13.80;80.70
3550;DHT22;45572;48.804;8.330;2023-02-18T07:01:56;13.90;80.70
3550;DHT22;45572;48.804;8.330;2023-02-18T07:04:25;13.90;80.40
3550;DHT22;45572;48.804;8.330;2023-02-18T07:06:53;13.90;80.50
3550;DHT22;45572;48.804;8.330;2023-02-18T07:09:21;13.90;80.30
3550;DHT22;45572;48.804;8.330;2023-02-18T07:11:49;13.90;80.50
3550;DHT22;45572;48.804;8.330;2023-02-18T07:14:16;13.90;80.50
3550;DHT22;45572;48.804;8.330;2023-02-18T07:16:44;13.90;80.60
3550;DHT22;45572;48.804;8.330;2023-02-18T07:19:12;13.90;80.50
3550;DHT22;45572;48.804;8.330;2023-02-18T07:21:42;13.90;80.50
3550;DHT22;45572;48.804;8.330;2023-02-18T07:24:09;13.90;80.80
3550;DHT22;45572;48.804;8.330;2023-02-18T07:26:37;13.90;80.80
3550;DHT22;45572;48.804;8.330;2023-02-18T07:29:05;13.90;81.00
3550;DHT22;45572;48.804;8.330;2023-02-18T07:31:33;13.90;80.80
3550;DHT22;45572;48.804;8.330;2023-02-18T07:34:01;14.00;80.80
3550;DHT22;45572;48.804;8.330;2023-02-18T07:36:29;13.90;80.90
3550;DHT22;45572;48.804;8.330;2023-02-18T07:38:58;14.00;80.80
3550;DHT22;45572;48.804;8.330;2023-02-18T07:41:25;14.00;80.60
3550;DHT22;45572;48.804;8.330;2023-02-18T07:43:53;14.00;80.40
3550;DHT22;45572;48.804;8.330;2023-02-18T07:46:21;14.00;80.30
3550;DHT22;45572;48.804;8.330;2023-02-18T07:48:50;14.00;80.40
3550;DHT22;45572;48.804;8.330;2023-02-18T07:51:18;13.90;80.90
3550;DHT22;45572;48.804;8.330;2023-02-18T07:53:46;13.90;81.00
3550;DHT22;45572;48.804;8.330;2023-02-18T07:56:15;14.00;80.90
3550;DHT22;45572;48.804;8.330;2023-02-18T07:58:44;14.00;80.80
3550;DHT22;45572;48.804;8.330;2023-02-18T08:01:13;14.00;80.90
3550;DHT22;45572;48.804;8.330;2023-02-18T08:03:42;14.00;80.60
3550;DHT22;45572;48.804;8.330;2023-02-18T08:06:20;13.90;81.00
3550;DHT22;45572;48.804;8.330;2023-02-18T08:08:51;14.00;80.80
3550;DHT22;45572;48.804;8.330;2023-02-18T08:11:21;14.00;80.80
3550;DHT22;45572;48.804;8.330;2023-02-18T08:13:49;13.90;81.20
3550;DHT22;45572;48.804;8.330;2023-02-18T08:16:18;14.00;80.90
3550;DHT22;45572;48.804;8.330;2023-02-18T08:18:52;14.00;80.80
3550;DHT22;45572;48.804;8.330;2023-02-18T08:21:23;14.00;80.60
3550;DHT22;45572;48.804;8.330;2023-02-18T08:23:52;14.00;81.00
3550;DHT22;45572;48.804;8.330;2023-02-18T08:26:21;14.10;81.00
3550;DHT22;45572;48.804;8.330;2023-02-18T08:28:50;14.10;81.00
3550;DHT22;45572;48.804;8.330;2023-02-18T08:31:20;14.10;80.90
3550;DHT22;45572;48.804;8.330;2023-02-18T08:33:56;14.00;80.90
3550;DHT22;45572;48.804;8.330;2023-02-18T08:36:26;14.10;80.70
3550;DHT22;45572;48.804;8.330;2023-02-18T08:38:54;14.10;80.90
3550;DHT22;45572;48.804;8.330;2023-02-18T08:41:24;14.10;81.20
3550;DHT22;45572;48.804;8.330;2023-02-18T08:43:51;14.20;80.60
3550;DHT22;45572;48.804;8.330;2023-02-18T08:46:19;14.20;80.90
3550;DHT22;45572;48.804;8.330;2023-02-18T08:49:01;14.30;80.70
3550;DHT22;45572;48.804;8.330;2023-02-18T08:51:29;14.40;80.40
3550;DHT22;45572;48.804;8.330;2023-02-18T08:53:57;14.40;80.80
3550;DHT22;45572;48.804;8.330;2023-02-18T08:56:26;14.40;80.30
3550;DHT22;45572;48.804;8.330;2023-02-18T08:58:54;14.50;80.40
3550;DHT22;45572;48.804;8.330;2023-02-18T09:01:21;14.50;80.20
3550;DHT22;45572;48.804;8.330;2023-02-18T09:03:49;14.60;80.30
3550;DHT22;45572;48.804;8.330;2023-02-18T09:06:17;14.60;79.40
3550;DHT22;45572;48.804;8.330;2023-02-18T09:08:45;14.60;79.40
3550;DHT22;45572;48.804;8.330;2023-02-18T09:11:13;14.60;79.90
3550;DHT22;45572;48.804;8.330;2023-02-18T09:13:42;14.50;79.70
3550;DHT22;45572;48.804;8.330;2023-02-18T09:16:12;14.60;79.70
3550;DHT22;45572;48.804;8.330;2023-02-18T09:18:41;14.60;79.70
3550;DHT22;45572;48.804;8.330;2023-02-18T09:21:11;14.60;79.90
3550;DHT22;45572;48.804;8.330;2023-02-18T09:23:39;14.60;79.40
3550;DHT22;45572;48.804;8.330;2023-02-18T09:26:10;14.70;79.70
3550;DHT22;45572;48.804;8.330;2023-02-18T09:28:39;14.70;79.30
3550;DHT22;45572;48.804;8.330;2023-02-18T09:31:10;14.70;79.30
3550;DHT22;45572;48.804;8.330;2023-02-18T09:33:41;14.70;79.40
3550;DHT22;45572;48.804;8.330;2023-02-18T09:36:11;14.60;79.40
3550;DHT22;45572;48.804;8.330;2023-02-18T09:38:40;14.60;79.70
3550;DHT22;45572;48.804;8.330;2023-02-18T09:41:16;14.60;79.70
3550;DHT22;45572;48.804;8.330;2023-02-18T09:43:48;14.60;79.90
3550;DHT22;45572;48.804;8.330;2023-02-18T09:46:23;14.60;79.30
3550;DHT22;45572;48.804;8.330;2023-02-18T09:48:51;14.70;78.90
3550;DHT22;45572;48.804;8.330;2023-02-18T09:51:19;14.80;79.00
3550;DHT22;45572;48.804;8.330;2023-02-18T09:53:47;14.80;78.40
3550;DHT22;45572;48.804;8.330;2023-02-18T09:56:27;14.80;78.40
3550;DHT22;45572;48.804;8.330;2023-02-18T09:58:57;14.80;78.50
3550;DHT22;45572;48.804;8.330;2023-02-18T10:01:29;14.90;78.60
3550;DHT22;45572;48.804;8.330;2023-02-18T10:04:02;14.90;78.60
3550;DHT22;45572;48.804;8.330;2023-02-18T10:06:33;14.90;78.90
3550;DHT22;45572;48.804;8.330;2023-02-18T10:09:03;14.90;78.60
3550;DHT22;45572;48.804;8.330;2023-02-18T10:11:39;14.80;78.50
3550;DHT22;45572;48.804;8.330;2023-02-18T10:14:10;14.90;79.00
3550;DHT22;45572;48.804;8.330;2023-02-18T10:16:40;14.80;78.60
3550;DHT22;45572;48.804;8.330;2023-02-18T10:19:19;14.80;78.70
3550;DHT22;45572;48.804;8.330;2023-02-18T10:21:48;14.80;78.80
3550;DHT22;45572;48.804;8.330;2023-02-18T10:24:26;14.80;79.40
3550;DHT22;45572;48.804;8.330;2023-02-18T10:26:56;14.70;79.20
3550;DHT22;45572;48.804;8.330;2023-02-18T10:29:25;14.60;79.90
3550;DHT22;45572;48.804;8.330;2023-02-18T10:32:00;14.70;80.10
3550;DHT22;45572;48.804;8.330;2023-02-18T10:34:39;14.80;79.50
3550;DHT22;45572;48.804;8.330;2023-02-18T10:37:26;14.90;79.40
3550;DHT22;45572;48.804;8.330;2023-02-18T10:40:06;15.00;79.70
3550;DHT22;45572;48.804;8.330;2023-02-18T10:42:42;15.00;79.50
3550;DHT22;45572;48.804;8.330;2023-02-18T10:45:21;15.00;79.60
3550;DHT22;45572;48.804;8.330;2023-02-18T10:47:59;15.10;79.40
3550;DHT22;45572;48.804;8.330;2023-02-18T10:50:34;15.00;78.90
3550;DHT22;45572;48.804;8.330;2023-02-18T10:53:11;14.90;79.60
3550;DHT22;45572;48.804;8.330;2023-02-18T10:55:42;15.00;79.70
3550;DHT22;45572;48.804;8.330;2023-02-18T10:58:26;15.00;79.20
3550;DHT22;45572;48.804;8.330;2023-02-18T11:00:54;15.00;79.80
3550;DHT22;45572;48.804;8.330;2023-02-18T11:03:25;15.00;79.10
3550;DHT22;45572;48.804;8.330;2023-02-18T11:05:55;15.00;79.10
3550;DHT22;45572;48.804;8.330;2023-02-18T11:08:25;15.00;79.50
3550;DHT22;45572;48.804;8.330;2023-02-18T11:10:54;15.00;79.40
3550;DHT22;45572;48.804;8.330;2023-02-18T11:13:25;14.90;79.10
3550;DHT22;45572;48.804;8.330;2023-02-18T11:15:57;14.90;79.50
3550;DHT22;45572;48.804;8.330;2023-02-18T11:18:31;14.90;79.10
3550;DHT22;45572;48.804;8.330;2023-02-18T11:21:02;14.90;79.40
3550;DHT22;45572;48.804;8.330;2023-02-18T11:23:30;15.00;79.40
3550;DHT22;45572;48.804;8.330;2023-02-18T11:26:01;14.90;79.00
3550;DHT22;45572;48.804;8.330;2023-02-18T11:28:39;14.90;79.10
3550;DHT22;45572;48.804;8.330;2023-02-18T11:31:09;14.90;79.50
3550;DHT22;45572;48.804;8.330;2023-02-18T11:33:42;15.00;79.40
3550;DHT22;45572;48.804;8.330;2023-02-18T11:36:17;15.00;78.80
3550;DHT22;45572;48.804;8.330;2023-02-18T11:38:48;15.00;79.10
3550;DHT22;45572;48.804;8.330;2023-02-18T11:41:18;14.90;79.00
3550;DHT22;45572;48.804;8.330;2023-02-18T11:43:49;14.90;78.90
3550;DHT22;45572;48.804;8.330;2023-02-18T11:46:19;15.10;79.00
3550;DHT22;45572;48.804;8.330;2023-02-18T11:48:50;15.10;78.60
3550;DHT22;45572;48.804;8.330;2023-02-18T11:51:19;15.10;78.00
3550;DHT22;45572;48.804;8.330;2023-02-18T11:53:56;15.00;78.10
3550;DHT22;45572;48.804;8.330;2023-02-18T11:56:27;15.00;78.30
3550;DHT22;45572;48.804;8.330;2023-02-18T11:58:56;14.90;78.10
3550;DHT22;45572;48.804;8.330;2023-02-18T12:01:35;14.90;78.40
3550;DHT22;45572;48.804;8.330;2023-02-18T12:04:10;14.80;78.00
3550;DHT22;45572;48.804;8.330;2023-02-18T12:06:43;14.70;78.20
3550;DHT22;45572;48.804;8.330;2023-02-18T12:09:21;14.60;78.80
3550;DHT22;45572;48.804;8.330;2023-02-18T12:11:52;14.70;78.40
3550;DHT22;45572;48.804;8.330;2023-02-18T12:14:22;14.70;78.50
3550;DHT22;45572;48.804;8.330;2023-02-18T12:20:04;14.60;78.40
3550;DHT22;45572;48.804;8.330;2023-02-18T12:22:41;14.60;78.50
3550;DHT22;45572;48.804;8.330;2023-02-18T12:25:23;14.70;78.70
3550;DHT22;45572;48.804;8.330;2023-02-18T12:28:03;14.70;78.30
3550;DHT22;45572;48.804;8.330;2023-02-18T12:30:42;14.80;77.90
3550;DHT22;45572;48.804;8.330;2023-02-18T12:33:21;14.70;78.30
3550;DHT22;45572;48.804;8.330;2023-02-18T12:36:00;14.80;78.00
3550;DHT22;45572;48.804;8.330;2023-02-18T12:38:53;14.80;78.00
3550;DHT22;45572;48.804;8.330;2023-02-18T12:41:32;14.80;77.90
3550;DHT22;45572;48.804;8.330;2023-02-18T12:44:10;14.80;78.20
3550;DHT22;45572;48.804;8.330;2023-02-18T12:46:53;14.80;78.00
3550;DHT22;45572;48.804;8.330;2023-02-18T12:49:47;14.80;77.80
3550;DHT22;45572;48.804;8.330;2023-02-18T12:52:28;15.00;77.60
3550;DHT22;45572;48.804;8.330;2023-02-18T12:55:18;15.00;77.40
3550;DHT22;45572;48.804;8.330;2023-02-18T12:57:55;15.00;77.10
3550;DHT22;45572;48.804;8.330;2023-02-18T13:00:43;15.00;76.90
3550;DHT22;45572;48.804;8.330;2023-02-18T13:03:34;15.00;77.20
3550;DHT22;45572;48.804;8.330;2023-02-18T13:06:11;15.00;77.10
3550;DHT22;45572;48.804;8.330;2023-02-18T13:08:49;15.00;77.10
3550;DHT22;45572;48.804;8.330;2023-02-18T13:11:30;15.00;77.10
3550;DHT22;45572;48.804;8.330;2023-02-18T13:14:03;15.10;76.90
3550;DHT22;45572;48.804;8.330;2023-02-18T13:16:34;15.10;76.30
3550;DHT22;45572;48.804;8.330;2023-02-18T13:19:13;15.10;76.40
3550;DHT22;45572;48.804;8.330;2023-02-18T13:21:44;15.20;76.60
3550;DHT22;45572;48.804;8.330;2023-02-18T13:24:24;15.10;76.20
3550;DHT22;45572;48.804;8.330;2023-02-18T13:26:57;15.10;76.80
3550;DHT22;45572;48.804;8.330;2023-02-18T13:29:31;15.10;76.40
3550;DHT22;45572;48.804;8.330;2023-02-18T13:32:09;15.10;76.60
3550;DHT22;45572;48.804;8.330;2023-02-18T13:34:44;15.00;77.10
3550;DHT22;45572;48.804;8.330;2023-02-18T13:37:19;15.10;78.40
3550;DHT22;45572;48.804;8.330;2023-02-18T13:39:51;14.90;78.90
3550;DHT22;45572;48.804;8.330;2023-02-18T13:42:26;14.80;79.60
3550;DHT22;45572;48.804;8.330;2023-02-18T13:45:06;14.70;79.70
3550;DHT22;45572;48.804;8.330;2023-02-18T13:47:49;14.70;79.80
3550;DHT22;45572;48.804;8.330;2023-02-18T13:50:27;14.70;79.70
3550;DHT22;45572;48.804;8.330;2023-02-18T13:53:11;14.80;79.40
3550;DHT22;45572;48.804;8.330;2023-02-18T13:55:49;14.80;79.40
3550;DHT22;45572;48.804;8.330;2023-02-18T13:58:20;14.80;79.10
3550;DHT22;45572;48.804;8.330;2023-02-18T14:00:52;15.00;78.90
3550;DHT22;45572;48.804;8.330;2023-02-18T14:03:34;15.10;78.40
3550;DHT22;45572;48.804;8.330;2023-02-18T14:06:13;15.00;78.70
3550;DHT22;45572;48.804;8.330;2023-02-18T14:08:42;14.90;78.50
3550;DHT22;45572;48.804;8.330;2023-02-18T14:11:34;15.00;78.70
3550;DHT22;45572;48.804;8.330;2023-02-18T14:17:13;15.10;78.00
3550;DHT22;45572;48.804;8.330;2023-02-18T14:19:41;15.00;77.90
3550;DHT22;45572;48.804;8.330;2023-02-18T14:22:26;14.90;78.30
3550;DHT22;45572;48.804;8.330;2023-02-18T14:24:56;14.80;78.10
3550;DHT22;45572;48.804;8.330;2023-02-18T14:27:28;14.80;78.10
3550;DHT22;45572;48.804;8.330;2023-02-18T14:30:01;14.70;78.40
3550;DHT22;45572;48.804;8.330;2023-02-18T14:32:30;14.70;78.50
3550;DHT22;45572;48.804;8.330;2023-02-18T14:35:07;14.80;78.40
3550;DHT22;45572;48.804;8.330;2023-02-18T14:37:53;14.90;78.10
3550;DHT22;45572;48.804;8.330;2023-02-18T14:40:38;15.00;78.10
3550;DHT22;45572;48.804;8.330;2023-02-18T14:43:15;15.10;77.90
3550;DHT22;45572;48.804;8.330;2023-02-18T14:45:59;15.10;76.90
3550;DHT22;45572;48.804;8.330;2023-02-18T14:48:41;15.00;77.00
3550;DHT22;45572;48.804;8.330;2023-02-18T14:51:14;15.10;76.90
3550;DHT22;45572;48.804;8.330;2023-02-18T14:53:44;15.10;76.90
3550;DHT22;45572;48.804;8.330;2023-02-18T14:56:14;15.00;76.70
3550;DHT22;45572;48.804;8.330;2023-02-18T14:58:46;15.20;76.80
3550;DHT22;45572;48.804;8.330;2023-02-18T15:01:18;15.40;76.60
3550;DHT22;45572;48.804;8.330;2023-02-18T15:03:47;15.50;75.80
3550;DHT22;45572;48.804;8.330;2023-02-18T15:06:22;15.50;76.00
3550;DHT22;45572;48.804;8.330;2023-02-18T15:08:50;15.50;75.80
3550;DHT22;45572;48.804;8.330;2023-02-18T15:11:21;15.50;75.70
3550;DHT22;45572;48.804;8.330;2023-02-18T15:13:51;15.50;76.30
3550;DHT22;45572;48.804;8.330;2023-02-18T15:16:23;15.40;75.90
3550;DHT22;45572;48.804;8.330;2023-02-18T15:18:54;15.30;76.40
3550;DHT22;45572;48.804;8.330;2023-02-18T15:21:27;15.10;76.40
3550;DHT22;45572;48.804;8.330;2023-02-18T15:24:03;15.10;76.90
3550;DHT22;45572;48.804;8.330;2023-02-18T15:26:32;15.00;76.90
3550;DHT22;45572;48.804;8.330;2023-02-18T15:29:04;15.10;77.00
3550;DHT22;45572;48.804;8.330;2023-02-18T15:31:37;15.20;77.00
3550;DHT22;45572;48.804;8.330;2023-02-18T15:34:26;15.00;77.20
3550;DHT22;45572;48.804;8.330;2023-02-18T15:36:56;15.10;77.40
3550;DHT22;45572;48.804;8.330;2023-02-18T15:39:25;15.00;77.40
3550;DHT22;45572;48.804;8.330;2023-02-18T15:41:54;15.00;77.20
3550;DHT22;45572;48.804;8.330;2023-02-18T15:44:26;14.90;77.50
3550;DHT22;45572;48.804;8.330;2023-02-18T15:46:59;14.90;77.60
3550;DHT22;45572;48.804;8.330;2023-02-18T15:49:27;15.00;77.90
3550;DHT22;45572;48.804;8.330;2023-02-18T15:51:58;15.00;77.70
3550;DHT22;45572;48.804;8.330;2023-02-18T15:54:27;14.90;77.10
3550;DHT22;45572;48.804;8.330;2023-02-18T15:56:59;14.80;77.40
3550;DHT22;45572;48.804;8.330;2023-02-18T15:59:32;14.80;78.20
3550;DHT22;45572;48.804;8.330;2023-02-18T16:02:11;14.70;77.90
3550;DHT22;45572;48.804;8.330;2023-02-18T16:04:46;14.70;78.30
3550;DHT22;45572;48.804;8.330;2023-02-18T16:07:20;14.70;78.20
3550;DHT22;45572;48.804;8.330;2023-02-18T16:09:49;14.60;78.40
3550;DHT22;45572;48.804;8.330;2023-02-18T16:12:24;14.50;78.60
3550;DHT22;45572;48.804;8.330;2023-02-18T16:14:55;14.50;78.50
3550;DHT22;45572;48.804;8.330;2023-02-18T16:17:26;14.40;78.70
3550;DHT22;45572;48.804;8.330;2023-02-18T16:19:56;14.40;79.10
3550;DHT22;45572;48.804;8.330;2023-02-18T16:22:34;14.30;79.10
3550;DHT22;45572;48.804;8.330;2023-02-18T16:25:13;14.20;79.30
3550;DHT22;45572;48.804;8.330;2023-02-18T16:27:48;14.20;80.00